Time;durP1;ratioP1;P1;durP2;ratioP2;P2;SDS_P1;SDS_P2;PMS_P1;PMS_P2;Temp;Humidity;BMP_temperature;BMP_pressure;BME280_temperature;BME280_humidity;BME280_pressure;Samples;Min_cycle;Max_cycle;Signal;HPM_P1;HPM_P2
2022/11/09 00:00:49;;;;;;;0.80;0.50;;;;;;;21.23;42.04;99692.03;4542163;28;20080;-64
2022/11/09 00:02:59;;;;;;;1.23;0.47;;;;;;;21.23;42.17;99694.91;4541166;28;20032;-65
2022/11/09 00:05:10;;;;;;;0.50;0.40;;;;;;;21.22;42.15;99687.53;4541041;28;20199;-64
2022/11/09 00:07:20;;;;;;;0.70;0.50;;;;;;;21.23;41.96;99692.03;4539759;28;20033;-65
2022/11/09 00:09:31;;;;;;;0.63;0.50;;;;;;;21.23;42.27;99696.97;4540231;28;20052;-65
2022/11/09 00:11:41;;;;;;;0.57;0.47;;;;;;;21.23;42.24;99697.78;4541230;28;20071;-65
2022/11/09 00:13:52;;;;;;;0.45;0.40;;;;;;;21.19;42.21;99685.47;4538413;28;20029;-65
2022/11/09 00:16:03;;;;;;;0.50;0.50;;;;;;;21.23;42.40;99694.13;4538734;28;20083;-65
2022/11/09 00:18:14;;;;;;;0.43;0.35;;;;;;;21.22;42.33;99698.19;4539588;28;20077;-64
2022/11/09 00:20:24;;;;;;;0.80;0.50;;;;;;;21.22;42.26;99699.00;4541443;28;20120;-65
2022/11/09 00:22:34;;;;;;;0.60;0.50;;;;;;;21.23;41.81;99697.78;4539252;28;20164;-65
2022/11/09 00:24:45;;;;;;;0.75;0.40;;;;;;;21.22;42.26;99693.28;4539514;28;20180;-65
2022/11/09 00:26:55;;;;;;;0.95;0.50;;;;;;;21.22;42.40;99699.00;4539981;28;20041;-65
2022/11/09 00:29:06;;;;;;;0.57;0.40;;;;;;;21.22;42.28;99701.06;4538588;28;20091;-64
2022/11/09 00:31:19;;;;;;;0.60;0.43;;;;;;;21.22;42.49;99686.69;4539868;28;20070;-65
2022/11/09 00:33:30;;;;;;;0.57;0.40;;;;;;;21.21;42.35;99691.63;4540804;28;20032;-64
2022/11/09 00:35:40;;;;;;;0.63;0.40;;;;;;;21.21;42.41;99694.50;4555103;28;20563;-64
2022/11/09 00:37:50;;;;;;;1.48;0.43;;;;;;;21.21;42.41;99690.81;4537575;28;20469;-64
2022/11/09 00:40:01;;;;;;;0.85;0.50;;;;;;;21.21;42.62;99694.50;4539331;28;20496;-65
2022/11/09 00:42:11;;;;;;;0.57;0.40;;;;;;;21.22;42.36;99693.28;4539582;28;20036;-65
2022/11/09 00:44:22;;;;;;;0.35;0.35;;;;;;;21.21;42.38;99682.19;4539522;28;20103;-65
2022/11/09 00:46:33;;;;;;;0.45;0.43;;;;;;;21.20;42.70;99689.97;4553763;28;20635;-65
2022/11/09 00:48:44;;;;;;;0.45;0.40;;;;;;;21.20;42.50;99680.56;4537848;28;20123;-65
2022/11/09 00:50:56;;;;;;;0.98;0.43;;;;;;;21.19;42.49;99682.59;4538539;28;20039;-65
2022/11/09 00:53:07;;;;;;;0.50;0.40;;;;;;;21.20;42.49;99681.34;4536378;28;20503;-65
2022/11/09 00:55:19;;;;;;;1.00;0.40;;;;;;;21.19;42.78;99685.47;4540829;28;20476;-65
2022/11/09 00:57:30;;;;;;;0.93;0.30;;;;;;;21.21;42.88;99685.06;4537491;28;20841;-64
2022/11/09 00:59:40;;;;;;;0.70;0.50;;;;;;;21.19;42.85;99676.84;4519956;28;20095;-65
2022/11/09 01:01:51;;;;;;;0.40;0.40;;;;;;;21.19;42.85;99682.59;4527419;28;20892;-64
2022/11/09 01:04:02;;;;;;;1.00;0.50;;;;;;;21.20;42.59;99698.56;4537951;28;20032;-64
2022/11/09 01:06:15;;;;;;;0.30;0.30;;;;;;;21.19;42.65;99691.19;4538322;28;20044;-64
2022/11/09 01:08:26;;;;;;;0.75;0.50;;;;;;;21.16;42.68;99691.97;4538026;28;20077;-64
2022/11/09 01:10:46;;;;;;;0.47;0.40;;;;;;;21.19;43.01;99691.19;4539228;28;20464;-64
2022/11/09 01:12:56;;;;;;;0.82;0.47;;;;;;;21.19;42.88;99684.63;4538818;28;20129;-64
2022/11/09 01:15:07;;;;;;;0.50;0.50;;;;;;;21.18;43.08;99683.81;4539498;28;20021;-64
2022/11/09 01:17:18;;;;;;;0.60;0.50;;;;;;;21.18;42.78;99682.97;4538516;28;20041;-65
2022/11/09 01:19:30;;;;;;;0.52;0.50;;;;;;;21.18;43.03;99675.22;4538474;28;20040;-64
2022/11/09 01:21:41;;;;;;;0.50;0.45;;;;;;;21.19;43.18;99673.97;4539520;28;20126;-65
2022/11/09 01:23:51;;;;;;;1.02;0.50;;;;;;;21.17;42.93;99670.66;4538983;28;20041;-65
2022/11/09 01:26:06;;;;;;;0.70;0.60;;;;;;;21.18;42.82;99682.97;4538523;28;20106;-65
2022/11/09 01:28:16;;;;;;;0.57;0.40;;;;;;;21.17;43.19;99699.38;4537250;28;20037;-64
2022/11/09 01:30:27;;;;;;;0.45;0.45;;;;;;;21.16;43.19;99689.13;4537425;28;20068;-65
2022/11/09 01:32:37;;;;;;;0.47;0.40;;;;;;;21.18;43.41;99689.56;4539026;28;20029;-64
2022/11/09 01:34:49;;;;;;;1.10;0.40;;;;;;;21.18;43.09;99689.56;4540055;28;20044;-65
2022/11/09 01:36:59;;;;;;;0.73;0.50;;;;;;;21.17;43.42;99687.88;4540585;28;20035;-64
2022/11/09 01:39:10;;;;;;;0.40;0.38;;;;;;;21.16;43.13;99685.41;4539200;28;20520;-64
2022/11/09 01:41:25;;;;;;;0.50;0.40;;;;;;;21.17;43.28;99678.47;4538650;28;20584;-65
2022/11/09 01:43:35;;;;;;;0.40;0.40;;;;;;;21.17;43.28;99687.88;4539184;28;20029;-65
2022/11/09 01:46:11;;;;;;;0.55;0.50;;;;;;;21.15;43.35;99678.03;4538446;28;20036;-65
2022/11/09 01:48:46;;;;;;;0.52;0.40;;;;;;;21.17;43.31;99675.59;4537293;28;20034;-65
2022/11/09 01:51:01;;;;;;;0.82;0.40;;;;;;;21.16;43.41;99676.81;4537578;28;20128;-65
2022/11/09 01:53:17;;;;;;;0.55;0.50;;;;;;;21.15;43.22;99669.41;4538324;28;20040;-65
2022/11/09 01:55:30;;;;;;;1.25;0.55;;;;;;;21.16;43.48;99669.03;4535811;28;20133;-65
2022/11/09 01:57:46;;;;;;;0.82;0.57;;;;;;;21.14;43.19;99659.97;4538709;28;20043;-65
2022/11/09 02:00:04;;;;;;;0.75;0.50;;;;;;;21.14;43.25;99665.72;4537824;28;20045;-65
2022/11/09 02:02:23;;;;;;;0.68;0.45;;;;;;;21.14;43.35;99659.97;4535847;28;20032;-65
2022/11/09 02:04:49;;;;;;;0.50;0.50;;;;;;;21.15;43.62;99658.78;4538473;28;20033;-65
2022/11/09 02:07:01;;;;;;;0.60;0.50;;;;;;;21.15;43.53;99664.53;4539842;28;20147;-65
2022/11/09 02:09:19;;;;;;;0.60;0.40;;;;;;;21.15;43.75;99664.53;4541674;28;20041;-65
2022/11/09 02:11:30;;;;;;;0.50;0.50;;;;;;;21.15;43.91;99673.13;4528731;28;20140;-65
2022/11/09 02:13:44;;;;;;;0.55;0.55;;;;;;;21.14;43.84;99665.72;4528536;28;20037;-65
2022/11/09 02:15:55;;;;;;;0.80;0.45;;;;;;;21.14;43.65;99659.97;4557710;28;20144;-65
2022/11/09 02:18:06;;;;;;;0.77;0.40;;;;;;;21.13;43.62;99669.81;4531117;28;20056;-65
2022/11/09 02:20:17;;;;;;;0.47;0.47;;;;;;;21.14;43.68;99667.75;4542714;28;20056;-64
2022/11/09 02:22:28;;;;;;;0.77;0.40;;;;;;;21.12;43.86;99659.53;4542168;28;21064;-65
2022/11/09 02:24:38;;;;;;;0.40;0.30;;;;;;;21.14;43.69;99659.16;4539262;28;20064;-65
2022/11/09 02:26:51;;;;;;;0.30;0.30;;;;;;;21.13;43.82;99657.50;4541221;28;20044;-65
2022/11/09 02:29:05;;;;;;;1.30;0.47;;;;;;;21.13;44.06;99661.22;4542479;28;20785;-65
2022/11/09 02:31:17;;;;;;;0.45;0.40;;;;;;;21.13;43.92;99664.06;4528670;28;20142;-65
2022/11/09 02:33:41;;;;;;;0.40;0.40;;;;;;;21.13;43.81;99664.06;4539809;28;20039;-65
2022/11/09 02:35:52;;;;;;;1.23;0.45;;;;;;;21.12;43.98;99667.34;4541140;28;20140;-65
2022/11/09 02:38:02;;;;;;;0.50;0.40;;;;;;;21.12;44.18;99673.88;4542623;28;20029;-65
2022/11/09 02:40:19;;;;;;;0.40;0.30;;;;;;;21.13;44.00;99675.56;4542658;28;20088;-65
2022/11/09 02:42:30;;;;;;;0.40;0.35;;;;;;;21.13;44.18;99664.06;4542008;28;20971;-65
2022/11/09 02:44:45;;;;;;;0.45;0.32;;;;;;;21.12;44.02;99665.28;4541694;28;20033;-65
2022/11/09 02:46:55;;;;;;;0.60;0.32;;;;;;;21.12;44.25;99662.41;4540273;28;20041;-65
2022/11/09 02:49:09;;;;;;;0.45;0.40;;;;;;;21.10;44.31;99666.91;4539084;28;20058;-65
2022/11/09 02:51:20;;;;;;;1.63;0.65;;;;;;;21.12;44.02;99665.28;4541320;28;20063;-66
2022/11/09 02:53:30;;;;;;;0.55;0.40;;;;;;;21.11;44.10;99662.81;4541393;28;20095;-66
2022/11/09 02:55:42;;;;;;;0.93;0.50;;;;;;;21.11;43.97;99657.91;4538490;28;20033;-66
2022/11/09 02:57:52;;;;;;;0.40;0.40;;;;;;;21.07;44.27;99654.19;4542284;28;20057;-66
2022/11/09 03:00:04;;;;;;;0.38;0.38;;;;;;;21.11;44.02;99660.78;4541149;28;20040;-65
2022/11/09 03:02:15;;;;;;;0.63;0.40;;;;;;;21.11;43.89;99663.63;4529113;28;20044;-65
2022/11/09 03:04:25;;;;;;;0.70;0.40;;;;;;;21.10;44.23;99647.66;4539352;28;20436;-66
2022/11/09 03:06:36;;;;;;;0.77;0.50;;;;;;;21.10;44.60;99644.78;4540503;28;20064;-65
2022/11/09 03:08:55;;;;;;;0.90;0.40;;;;;;;21.11;44.41;99642.72;4540483;28;20851;-65
2022/11/09 03:11:05;;;;;;;0.57;0.35;;;;;;;21.10;44.13;99653.38;4538794;28;20059;-65
2022/11/09 03:13:16;;;;;;;0.82;0.50;;;;;;;21.10;44.33;99644.78;4540915;28;20090;-65
2022/11/09 03:15:27;;;;;;;0.30;0.30;;;;;;;21.10;44.48;99647.66;4537496;28;20075;-65
2022/11/09 03:17:37;;;;;;;0.70;0.32;;;;;;;21.10;44.58;99650.53;4538868;28;20033;-66
2022/11/09 03:19:47;;;;;;;0.40;0.40;;;;;;;21.09;44.60;99651.72;4521902;28;20043;-65
2022/11/09 03:21:58;;;;;;;0.35;0.35;;;;;;;21.09;44.42;99645.19;4541849;28;20032;-65
2022/11/09 03:24:08;;;;;;;0.40;0.40;;;;;;;21.10;44.51;99653.38;4540487;28;20068;-65
2022/11/09 03:26:21;;;;;;;0.32;0.32;;;;;;;21.10;44.58;99658.28;4539661;28;20506;-65
2022/11/09 03:28:32;;;;;;;1.10;1.00;;;;;;;21.09;44.77;99660.31;4520833;28;20028;-65
2022/11/09 03:30:43;;;;;;;1.52;1.13;;;;;;;21.09;44.70;99674.69;4538498;28;20029;-65
2022/11/09 03:32:58;;;;;;;0.32;0.32;;;;;;;21.09;44.77;99671.81;4555867;28;20494;-65
2022/11/09 03:35:08;;;;;;;0.60;0.50;;;;;;;21.09;44.90;99671.81;4556908;28;20787;-65
2022/11/09 03:37:19;;;;;;;0.47;0.47;;;;;;;21.08;44.93;99667.31;4538212;28;20036;-65
2022/11/09 03:39:29;;;;;;;0.40;0.40;;;;;;;21.09;44.83;99680.41;4539480;28;20028;-65
2022/11/09 03:41:40;;;;;;;0.50;0.50;;;;;;;21.08;44.87;99683.69;4540159;28;20035;-66
2022/11/09 03:43:52;;;;;;;0.40;0.40;;;;;;;21.09;44.71;99685.34;4528629;28;20028;-65
2022/11/09 03:46:02;;;;;;;0.90;0.43;;;;;;;21.08;44.97;99684.50;4539606;28;20398;-65
2022/11/09 03:48:13;;;;;;;0.52;0.50;;;;;;;21.08;45.02;99687.38;4540700;28;20041;-65
2022/11/09 03:50:23;;;;;;;0.40;0.40;;;;;;;21.08;44.61;99677.94;4540786;28;27926;-65
2022/11/09 03:52:34;;;;;;;0.55;0.40;;;;;;;21.07;45.09;99680.00;4540670;28;20108;-65
2022/11/09 03:54:45;;;;;;;1.05;0.40;;;;;;;21.08;44.89;99690.25;4540716;28;20037;-65
2022/11/09 03:56:55;;;;;;;0.73;0.50;;;;;;;21.07;44.83;99685.75;4542401;28;20021;-65
2022/11/09 03:59:05;;;;;;;0.80;0.60;;;;;;;21.08;44.81;99677.94;4538016;28;20033;-65
2022/11/09 04:01:16;;;;;;;0.75;0.40;;;;;;;21.07;45.09;99677.13;4541622;28;20040;-66
2022/11/09 04:03:26;;;;;;;0.38;0.38;;;;;;;21.08;44.88;99675.06;4540812;28;20032;-65
2022/11/09 04:05:37;;;;;;;0.40;0.40;;;;;;;21.08;44.78;99677.94;4541161;28;20506;-66
2022/11/09 04:07:53;;;;;;;0.63;0.47;;;;;;;21.06;45.06;99675.47;4527799;28;20155;-65
2022/11/09 04:10:04;;;;;;;0.40;0.40;;;;;;;21.07;45.14;99664.81;4542034;28;20124;-66
2022/11/09 04:12:15;;;;;;;0.43;0.38;;;;;;;21.04;44.68;99672.16;4541103;28;20048;-66
2022/11/09 04:14:25;;;;;;;0.70;0.50;;;;;;;21.06;45.24;99669.72;4542143;28;20044;-65
2022/11/09 04:16:36;;;;;;;0.43;0.40;;;;;;;21.06;44.70;99669.72;4541978;28;20074;-66
2022/11/09 04:18:46;;;;;;;0.85;0.47;;;;;;;21.06;44.95;99671.78;4541108;28;20041;-65
2022/11/09 04:20:58;;;;;;;0.73;0.50;;;;;;;21.06;44.77;99669.72;4541564;28;20040;-65
2022/11/09 04:23:11;;;;;;;1.30;0.50;;;;;;;21.06;44.95;99678.34;4542446;28;20029;-65
2022/11/09 04:25:21;;;;;;;1.10;0.68;;;;;;;21.06;44.98;99678.34;4528809;28;20765;-65
2022/11/09 04:27:32;;;;;;;1.05;0.80;;;;;;;21.03;44.72;99675.41;4541006;28;20759;-65
2022/11/09 04:29:42;;;;;;;0.85;0.70;;;;;;;21.06;44.93;99677.53;4540134;28;20098;-65
2022/11/09 04:31:53;;;;;;;0.57;0.57;;;;;;;21.02;44.62;99668.88;4539136;28;20464;-65
2022/11/09 04:34:03;;;;;;;0.82;0.47;;;;;;;21.05;44.63;99673.00;4540711;28;21125;-65
2022/11/09 04:36:13;;;;;;;0.52;0.43;;;;;;;21.02;44.78;99668.03;4540760;28;20045;-65
2022/11/09 04:38:24;;;;;;;0.82;0.60;;;;;;;21.05;44.55;99685.31;4540268;28;20115;-65
2022/11/09 04:40:34;;;;;;;0.50;0.40;;;;;;;21.02;44.71;99677.47;4540963;28;20033;-65
2022/11/09 04:42:45;;;;;;;1.05;0.60;;;;;;;21.03;44.62;99682.00;4540032;28;20033;-65
2022/11/09 04:44:55;;;;;;;1.15;0.40;;;;;;;21.04;44.45;99692.25;4523968;28;20037;-65
2022/11/09 04:47:06;;;;;;;0.60;0.55;;;;;;;21.04;44.77;99680.75;4538954;28;20072;-65
2022/11/09 04:49:16;;;;;;;0.85;0.40;;;;;;;21.04;44.49;99682.81;4540273;28;20170;-65
2022/11/09 04:51:26;;;;;;;0.57;0.50;;;;;;;21.04;44.64;99692.25;4539983;28;20033;-65
2022/11/09 04:53:38;;;;;;;1.38;0.68;;;;;;;21.02;44.57;99691.81;4539587;28;20122;-66
2022/11/09 04:55:49;;;;;;;0.40;0.30;;;;;;;21.04;44.68;99695.09;4541402;28;21210;-66
2022/11/09 04:58:00;;;;;;;0.75;0.50;;;;;;;21.04;44.73;99695.09;4539861;28;20095;-66
2022/11/09 05:00:11;;;;;;;0.77;0.50;;;;;;;21.04;44.63;99697.16;4541120;28;20537;-66
2022/11/09 05:02:21;;;;;;;0.50;0.50;;;;;;;21.03;44.37;99689.75;4541043;28;20032;-66
2022/11/09 05:04:32;;;;;;;1.05;0.60;;;;;;;21.05;44.60;99696.78;4537941;28;20075;-65
2022/11/09 05:06:42;;;;;;;0.60;0.60;;;;;;;21.03;44.73;99698.38;4539662;28;20527;-65
2022/11/09 05:08:54;;;;;;;0.85;0.57;;;;;;;21.02;44.72;99703.31;4539998;28;20040;-66
2022/11/09 05:11:04;;;;;;;1.10;0.65;;;;;;;21.02;44.54;99696.72;4540127;28;20037;-66
2022/11/09 05:13:16;;;;;;;1.38;0.80;;;;;;;21.00;44.57;99690.56;4539667;28;20033;-66
2022/11/09 05:15:27;;;;;;;1.10;0.70;;;;;;;21.02;44.34;99696.72;4538860;28;20029;-66
2022/11/09 05:17:38;;;;;;;0.52;0.50;;;;;;;21.01;44.64;99703.69;4540319;28;20037;-65
2022/11/09 05:19:48;;;;;;;0.82;0.68;;;;;;;21.02;44.59;99696.72;4540701;28;20098;-65
2022/11/09 05:23:57;;;;;;;0.50;0.50;;;;;;;21.02;44.65;99699.59;4540444;28;20037;-65
2022/11/09 05:24:29;;;;;;;0.65;0.63;;;;;;;21.02;44.45;99699.59;4538499;28;20049;-65
2022/11/09 05:26:41;;;;;;;0.75;0.40;;;;;;;21.01;44.75;99701.63;4538238;28;20042;-66
2022/11/09 05:28:51;;;;;;;0.45;0.40;;;;;;;21.02;44.63;99697.56;4539928;28;20029;-66
2022/11/09 05:31:02;;;;;;;0.50;0.50;;;;;;;21.01;44.47;99690.16;4538293;28;20025;-66
2022/11/09 05:33:13;;;;;;;1.17;0.50;;;;;;;21.00;44.75;99688.50;4541089;28;20040;-66
2022/11/09 05:35:24;;;;;;;0.77;0.50;;;;;;;20.99;44.52;99686.88;4539044;28;20055;-66
2022/11/09 05:37:34;;;;;;;1.17;0.50;;;;;;;21.00;44.43;99679.91;4539149;28;20028;-66
2022/11/09 05:39:44;;;;;;;0.60;0.40;;;;;;;21.01;44.56;99681.53;4538068;28;20033;-66
2022/11/09 05:41:55;;;;;;;0.68;0.40;;;;;;;21.00;44.54;99674.16;4538969;28;20048;-65
2022/11/09 05:44:05;;;;;;;1.52;0.50;;;;;;;21.01;44.46;99681.53;4538700;28;20540;-65
2022/11/09 05:46:17;;;;;;;0.55;0.40;;;;;;;21.01;44.49;99681.53;4540650;28;20041;-65
2022/11/09 05:48:27;;;;;;;0.77;0.47;;;;;;;20.97;44.29;99679.88;4539174;28;20041;-65
2022/11/09 05:50:40;;;;;;;0.40;0.40;;;;;;;21.00;44.14;99681.94;4540855;28;20069;-66
2022/11/09 05:52:59;;;;;;;0.52;0.43;;;;;;;20.98;44.19;99685.19;4539542;28;20106;-66
2022/11/09 05:55:09;;;;;;;0.73;0.40;;;;;;;21.00;44.41;99691.38;4540755;28;20057;-65
2022/11/09 05:57:20;;;;;;;0.75;0.40;;;;;;;21.00;44.29;99694.25;4537640;28;20029;-66
2022/11/09 05:59:30;;;;;;;0.52;0.30;;;;;;;21.00;44.24;99690.56;4538114;28;20032;-65
2022/11/09 06:01:41;;;;;;;0.52;0.40;;;;;;;20.99;44.18;99686.88;4539755;28;20044;-65
2022/11/09 06:03:53;;;;;;;0.38;0.38;;;;;;;21.00;44.12;99687.69;4540146;28;22010;-65
2022/11/09 06:06:06;;;;;;;0.55;0.45;;;;;;;20.99;44.31;99689.75;4538041;28;20135;-66
2022/11/09 06:08:16;;;;;;;0.68;0.40;;;;;;;21.00;44.36;99681.94;4538429;28;20106;-65
2022/11/09 06:10:27;;;;;;;0.30;0.30;;;;;;;20.99;44.21;99686.88;4539156;28;20920;-65
2022/11/09 06:12:37;;;;;;;0.47;0.47;;;;;;;20.98;44.27;99699.53;4539629;28;20072;-66
2022/11/09 06:14:48;;;;;;;0.65;0.30;;;;;;;20.97;44.11;99699.94;4538848;28;20021;-66
2022/11/09 06:16:58;;;;;;;0.52;0.30;;;;;;;20.95;44.22;99694.56;4539627;28;20102;-66
2022/11/09 06:19:09;;;;;;;0.32;0.30;;;;;;;20.99;44.44;99704.09;4538524;28;20087;-65
2022/11/09 06:21:20;;;;;;;0.50;0.50;;;;;;;20.98;44.49;99710.22;4537906;28;20706;-65
2022/11/09 06:23:31;;;;;;;0.80;0.50;;;;;;;20.98;44.11;99713.09;4539264;28;20490;-65
2022/11/09 06:25:41;;;;;;;0.55;0.30;;;;;;;20.99;44.24;99714.72;4539684;28;20447;-65
2022/11/09 06:27:55;;;;;;;0.77;0.40;;;;;;;20.97;44.52;99723.72;4539539;28;20036;-65
2022/11/09 06:30:06;;;;;;;0.82;0.40;;;;;;;20.97;44.21;99718.00;4554322;28;20039;-65
2022/11/09 06:32:16;;;;;;;1.35;0.50;;;;;;;20.97;44.59;99723.72;4539753;28;20039;-65
2022/11/09 06:34:26;;;;;;;0.40;0.30;;;;;;;20.97;44.50;99723.72;4540114;28;20164;-65
2022/11/09 06:36:37;;;;;;;0.70;0.40;;;;;;;20.95;44.67;99720.38;4539057;28;20405;-65
2022/11/09 06:38:49;;;;;;;1.00;0.40;;;;;;;20.98;44.60;99724.56;4537670;28;20021;-65
2022/11/09 06:40:59;;;;;;;0.60;0.40;;;;;;;20.96;44.54;99730.69;4537802;28;20044;-65
2022/11/09 06:43:10;;;;;;;1.15;0.65;;;;;;;20.96;44.53;99730.69;4537941;28;20049;-65
2022/11/09 06:45:20;;;;;;;0.63;0.40;;;;;;;20.97;44.59;99734.38;4536703;28;20785;-65
2022/11/09 06:47:31;;;;;;;1.13;0.40;;;;;;;20.96;44.50;99733.56;4538412;28;20080;-65
2022/11/09 06:49:41;;;;;;;1.08;0.50;;;;;;;20.96;44.60;99736.44;4537795;28;20403;-64
2022/11/09 06:51:52;;;;;;;0.40;0.30;;;;;;;20.96;44.47;99744.16;4541354;28;20029;-66
2022/11/09 06:54:02;;;;;;;0.52;0.30;;;;;;;20.96;44.52;99739.31;4539370;28;20112;-65
2022/11/09 06:56:12;;;;;;;0.50;0.40;;;;;;;20.93;44.57;99745.75;4540041;28;20599;-65
2022/11/09 06:58:23;;;;;;;1.38;0.30;;;;;;;20.93;44.75;99751.50;4539636;28;20034;-64
2022/11/09 07:00:34;;;;;;;0.30;0.30;;;;;;;20.95;45.09;99751.94;4540763;28;20029;-65
2022/11/09 07:02:44;;;;;;;0.65;0.30;;;;;;;20.96;45.13;99768.00;4555929;28;20052;-65
2022/11/09 07:04:55;;;;;;;0.73;0.40;;;;;;;20.96;45.11;99784.34;4540211;28;20505;-65
2022/11/09 07:07:06;;;;;;;0.85;0.32;;;;;;;20.95;45.78;99780.63;4538887;28;20052;-65
2022/11/09 07:09:17;;;;;;;0.47;0.40;;;;;;;20.92;46.18;99778.53;4540309;28;20568;-65
2022/11/09 07:11:27;;;;;;;0.38;0.20;;;;;;;20.85;46.51;99763.28;4541433;28;20504;-65
2022/11/09 07:13:38;;;;;;;0.20;0.20;;;;;;;20.92;46.59;99780.56;4539293;28;20033;-65
2022/11/09 07:15:53;;;;;;;0.43;0.20;;;;;;;20.93;46.78;99770.78;4538109;28;20032;-65
2022/11/09 07:18:07;;;;;;;0.63;0.40;;;;;;;20.90;46.87;99780.97;4541022;28;20079;-66
2022/11/09 07:20:17;;;;;;;0.57;0.20;;;;;;;20.92;46.99;99774.84;4524211;28;20602;-65
2022/11/09 07:22:28;;;;;;;0.77;0.30;;;;;;;20.94;46.96;99781.84;4540305;28;20526;-65
2022/11/09 07:24:38;;;;;;;0.73;0.30;;;;;;;20.93;46.75;99780.19;4540672;28;20448;-66
2022/11/09 07:26:49;;;;;;;0.40;0.30;;;;;;;20.93;46.47;99783.06;4539486;28;20047;-66
2022/11/09 07:29:00;;;;;;;0.43;0.20;;;;;;;20.93;46.77;99791.66;4538864;28;20769;-66
2022/11/09 07:31:10;;;;;;;0.38;0.30;;;;;;;20.93;46.64;99787.97;4540042;28;20053;-66
2022/11/09 07:33:21;;;;;;;0.45;0.30;;;;;;;20.92;46.38;99790.00;4538312;28;20083;-66
2022/11/09 07:35:31;;;;;;;0.70;0.30;;;;;;;20.89;46.64;99782.19;4540655;28;20029;-66
2022/11/09 07:37:42;;;;;;;0.25;0.25;;;;;;;20.92;46.80;99789.19;4539715;28;20612;-65
2022/11/09 07:39:52;;;;;;;0.65;0.32;;;;;;;20.91;46.62;99794.09;4537540;28;20030;-66
2022/11/09 07:42:02;;;;;;;0.40;0.30;;;;;;;20.93;46.46;99800.25;4537909;28;20037;-66
2022/11/09 07:44:17;;;;;;;0.50;0.28;;;;;;;20.93;47.15;99794.53;4539049;28;20057;-66
2022/11/09 07:46:27;;;;;;;0.40;0.32;;;;;;;20.92;46.89;99790.00;4540685;28;20135;-65
2022/11/09 07:48:37;;;;;;;1.70;0.30;;;;;;;20.93;47.26;99799.47;4539112;28;20620;-65
2022/11/09 07:50:49;;;;;;;0.75;0.30;;;;;;;20.92;47.13;99798.63;4539027;28;20060;-65
2022/11/09 07:53:01;;;;;;;0.28;0.25;;;;;;;20.92;47.58;99801.50;4539560;28;20674;-66
2022/11/09 07:55:11;;;;;;;0.70;0.30;;;;;;;20.92;47.61;99800.66;4539440;28;20021;-66
2022/11/09 07:57:21;;;;;;;0.55;0.40;;;;;;;20.92;47.94;99800.66;4541213;28;20037;-66
2022/11/09 07:59:32;;;;;;;0.57;0.20;;;;;;;20.91;47.88;99802.72;4541037;28;20032;-66
2022/11/09 08:01:43;;;;;;;0.63;0.30;;;;;;;20.92;47.99;99801.50;4536853;28;20033;-65
2022/11/09 08:03:53;;;;;;;0.55;0.30;;;;;;;20.92;48.08;99801.50;4537663;28;20028;-66
2022/11/09 08:06:04;;;;;;;1.00;0.40;;;;;;;20.92;48.23;99810.09;4538684;28;20040;-65
2022/11/09 08:08:15;;;;;;;0.88;0.50;;;;;;;20.92;48.07;99812.97;4538442;28;20041;-65
2022/11/09 08:10:27;;;;;;;0.82;0.40;;;;;;;20.92;48.28;99807.22;4544155;28;20037;-65
2022/11/09 08:12:37;;;;;;;0.47;0.30;;;;;;;20.88;48.63;99806.38;4540288;28;20055;-64
2022/11/09 08:14:48;;;;;;;1.27;0.60;;;;;;;20.91;48.50;99814.19;4539773;28;20039;-65
2022/11/09 08:16:58;;;;;;;0.55;0.40;;;;;;;20.92;48.88;99818.69;4539566;28;20492;-66
2022/11/09 08:19:09;;;;;;;0.30;0.30;;;;;;;20.92;48.97;99812.97;4537438;28;20611;-66
2022/11/09 08:21:19;;;;;;;0.50;0.25;;;;;;;20.91;48.80;99810.47;4538420;28;20028;-65
2022/11/09 08:23:31;;;;;;;0.82;0.50;;;;;;;20.92;48.82;99817.88;4521736;28;20507;-66
2022/11/09 08:25:42;;;;;;;0.65;0.47;;;;;;;20.92;48.84;99827.31;4538407;28;20075;-63
2022/11/09 08:27:55;;;;;;;0.75;0.45;;;;;;;20.92;49.06;99817.88;4539449;28;20049;-65
2022/11/09 08:30:08;;;;;;;0.60;0.55;;;;;;;20.92;49.31;99812.97;4539618;28;20349;-64
2022/11/09 08:32:18;;;;;;;0.65;0.25;;;;;;;20.93;49.20;99814.59;4539430;28;20064;-66
2022/11/09 08:34:28;;;;;;;1.33;0.47;;;;;;;20.94;49.11;99822.00;4539357;28;20600;-67
2022/11/09 08:36:39;;;;;;;0.55;0.35;;;;;;;20.94;49.22;99822.00;4539131;28;20162;-64
2022/11/09 08:38:49;;;;;;;0.63;0.55;;;;;;;20.93;49.21;99814.59;4538530;28;20033;-66
2022/11/09 08:41:00;;;;;;;0.43;0.30;;;;;;;20.95;49.32;99817.91;4540663;28;20411;-65
2022/11/09 08:43:11;;;;;;;0.98;0.35;;;;;;;20.93;49.02;99817.47;4538432;28;20051;-64
2022/11/09 08:45:21;;;;;;;0.25;0.25;;;;;;;20.95;48.72;99809.31;4520944;28;21095;-65
2022/11/09 08:47:31;;;;;;;0.47;0.20;;;;;;;20.95;48.59;99806.44;4539915;28;20048;-62
2022/11/09 08:49:43;;;;;;;0.70;0.22;;;;;;;20.96;48.48;99805.28;4537691;28;20032;-65
2022/11/09 08:51:53;;;;;;;0.60;0.20;;;;;;;20.96;48.31;99808.16;4538315;28;20048;-65
2022/11/09 08:54:03;;;;;;;0.57;0.30;;;;;;;20.97;48.56;99821.28;4536532;28;20060;-64
2022/11/09 08:56:17;;;;;;;0.40;0.17;;;;;;;20.97;48.69;99820.44;4538323;28;20578;-62
2022/11/09 08:58:27;;;;;;;0.28;0.28;;;;;;;20.97;48.66;99827.00;4539098;28;20635;-66
2022/11/09 09:00:38;;;;;;;0.95;0.60;;;;;;;20.98;48.56;99828.66;4540533;28;20108;-66
2022/11/09 09:02:49;;;;;;;0.20;0.20;;;;;;;20.96;48.69;99830.22;4541705;28;20031;-65
2022/11/09 09:04:59;;;;;;;0.68;0.28;;;;;;;20.97;48.64;99832.75;4538779;28;20037;-66
2022/11/09 09:07:11;;;;;;;0.32;0.30;;;;;;;20.93;48.71;99820.34;4537265;28;20052;-66
2022/11/09 09:09:21;;;;;;;0.20;0.20;;;;;;;20.96;48.69;99828.22;4537871;28;20045;-65
2022/11/09 09:11:32;;;;;;;0.30;0.20;;;;;;;20.96;48.85;99836.84;4538652;28;20033;-66
2022/11/09 09:13:42;;;;;;;0.40;0.17;;;;;;;20.94;49.01;99833.50;4536458;28;20059;-66
2022/11/09 09:15:53;;;;;;;0.60;0.28;;;;;;;20.94;48.82;99832.66;4538214;28;20037;-64
2022/11/09 09:18:04;;;;;;;0.63;0.30;;;;;;;20.97;49.03;99838.47;4538021;28;20112;-64
2022/11/09 09:20:16;;;;;;;1.45;0.32;;;;;;;20.96;48.76;99830.22;4539822;28;20539;-64
2022/11/09 09:22:27;;;;;;;0.77;0.40;;;;;;;20.96;48.44;99842.56;4538552;28;20025;-63
2022/11/09 09:24:37;;;;;;;1.08;0.43;;;;;;;20.94;48.24;99838.38;4536453;28;20037;-64
2022/11/09 09:26:48;;;;;;;1.10;0.32;;;;;;;20.93;48.01;99839.63;4538602;28;20044;-65
2022/11/09 09:28:58;;;;;;;1.02;0.50;;;;;;;20.95;48.13;99846.59;4537936;28;20137;-66
2022/11/09 09:31:09;;;;;;;0.93;0.50;;;;;;;20.92;48.51;99838.78;4537374;28;20188;-66
2022/11/09 09:33:20;;;;;;;0.90;0.70;;;;;;;20.96;48.75;99851.19;4537921;28;20040;-65
2022/11/09 09:35:31;;;;;;;0.75;0.40;;;;;;;20.97;48.81;99852.00;4538750;28;20060;-65
2022/11/09 09:37:43;;;;;;;0.50;0.30;;;;;;;20.97;48.89;99855.69;4538126;28;20864;-65
2022/11/09 09:39:53;;;;;;;0.30;0.20;;;;;;;20.98;49.28;99850.78;4538381;28;20041;-65
2022/11/09 09:42:15;;;;;;;0.30;0.30;;;;;;;20.97;49.45;99849.13;4539428;28;20025;-65
2022/11/09 09:44:53;;;;;;;0.40;0.20;;;;;;;20.97;49.63;99852.81;4554612;28;20020;-65
2022/11/09 09:47:03;;;;;;;0.73;0.32;;;;;;;20.97;49.55;99857.72;4537124;28;20783;-65
2022/11/09 09:49:23;;;;;;;0.43;0.30;;;;;;;20.97;49.44;99861.44;4536263;28;20083;-65
2022/11/09 09:51:49;;;;;;;0.75;0.35;;;;;;;20.98;49.42;99857.34;4536913;28;20508;-66
2022/11/09 09:54:06;;;;;;;0.70;0.30;;;;;;;20.98;49.12;99857.34;4535310;28;20037;-66
2022/11/09 09:56:22;;;;;;;0.82;0.40;;;;;;;20.98;48.72;99860.22;4536338;28;20040;-66
2022/11/09 09:58:33;;;;;;;0.47;0.38;;;;;;;20.98;48.83;99857.34;4536226;28;20133;-66
2022/11/09 10:00:44;;;;;;;0.40;0.40;;;;;;;20.99;48.95;99858.16;4536294;28;20048;-66
2022/11/09 10:02:54;;;;;;;0.38;0.32;;;;;;;20.99;48.73;99867.63;4537935;28;20040;-66
2022/11/09 10:05:10;;;;;;;0.50;0.30;;;;;;;20.99;48.97;99864.75;4538903;28;20041;-66
2022/11/09 10:07:28;;;;;;;0.90;0.30;;;;;;;20.99;49.04;99869.66;4536799;28;20045;-64
2022/11/09 10:10:06;;;;;;;0.30;0.28;;;;;;;20.99;49.25;99863.91;4536760;28;20568;-66
2022/11/09 10:12:54;;;;;;;0.35;0.25;;;;;;;20.90;49.67;99841.19;4536724;28;20077;-65
2022/11/09 10:15:32;;;;;;;0.60;0.33;;;;;;;21.00;49.51;99866.38;4536708;28;20107;-65
2022/11/09 10:18:19;;;;;;;0.45;0.40;;;;;;;20.99;49.11;99858.16;4536311;28;20707;-65
2022/11/09 10:20:55;;;;;;;0.63;0.40;;;;;;;21.00;49.52;99866.38;4538377;28;20029;-65
2022/11/09 10:23:32;;;;;;;0.57;0.30;;;;;;;21.00;49.25;99869.25;4535952;28;20029;-65